Anton, CO

4:25 AM MDT on October 02, 2014 (GMT -0600)
Fort Morgan | Change Station
CLOSE
Current Station
Airport
Location: Fort Morgan,
Elevation: 4570 ft
Nearby Weather Stations

Elev 4570 ft 40.33 °N, 103.80 °W | Updated 10 minutes ago

Mostly Cloudy
Mostly Cloudy
40 °F
Feels Like 36 °F
N
6
Wind Variable Wind from NW

Today
High -- | Low -- °F
--% Chance of Precip.
Yesterday
High -- | Low -- °F
Precip. -- in
6:50 AM 6:33 PM
First Quarter, 57% visible
Pressure 30.09 in
Visibility 10.0 miles
Clouds Clear
Windchill 36 °F
Dew Point 39 °F
Humidity 94%
Rainfall 0.00 in
Snow Depth 0 in , 1 in , 0 in
UV 0 out of 12
Pollen 4.00 out of 12
Air Quality Not available.
Flu Activity Not available.
METAR KFMM 021015Z AUTO 32005KT 10SM CLR 05/04 A3009 RMK AO2 T00470038

More Conditions Fewer Conditions

Pressure 30.09 in
Visibility 10.0 miles
Clouds Clear
Windchill 36 °F
Dew Point 39 °F
Humidity 94%
Rainfall 0.00 in
Snow Depth 0 in , 1 in , 0 in
UV 0 out of 12
Pollen 4.00 out of 12
Air Quality Not available.
Flu Activity Not available.
METAR KFMM 021015Z AUTO 32005KT 10SM CLR 05/04 A3009 RMK AO2 T00470038

More Conditions Fewer Conditions

10-Day Weather Forecast

Almanac

Astronomy

Oct. 02, 2014 Rise Set
Actual Time 6:50 AM MDT 6:33 PM MDT
Civil Twilight 6:23 AM MDT 7:00 PM MDT
Nautical Twilight 5:52 AM MDT 7:31 PM MDT
Astronomical Twilight 5:20 AM MDT 8:03 PM MDT
Moon 2:41 PM MDT 12:10 AM MDT
Length of Visible Light 12h 37m
Length of Day
11h 43m
Tomorrow will be 2m 34s shorter.
First Quarter, 57% of the Moon is Illuminated
Today
First Quarter
Oct 8
Full
Oct 15
Last Quarter
Oct 23
New
Oct 30
First Quarter

Today's Extremes

State Highs State Lows

Community

WunderPhotos

Upload Photos

1,758,209 photos uploaded!

WunderBlogs® & News

Nearby

Snow Depth

Station Depth Elevation
Stillwater Creek 0 in 8720 ft
Beaver Divide 1 in 8280 ft
Tower 7 in 10500 ft
Idarado 0 in 9800 ft
Willow Park 1 in 10700 ft

Earthquake Activity

City Distance Mag. Time & Date
No recent earthquake activity has been reported nearby.
Minimum magnitude displayed is 2.5.

Coastal Water Temperatures

Place Temperature
No Stations Reporting

Nearby Weather Stations